Wyandanch, New York
Current Conditions -  °F | °C
As of 11:53 PM on Friday 28 Nov 2014 (Local Time) from KFRG Reporting Station
Clear Clear  
Wind Chill: 23°   Ceiling: Unl
Heat Index: 28°   Visibility: 10mi
Dew Point: 13°   Wind: 5mph
Humidity: 53%   Direction: 330°NNW
Pressure: 30.27"   Gusts: NA
Location:  40.76°N, 73.36°W
Report Text: KFRG 290453Z AUTO 33004KT 10SM CLR M02/M11 A3027 RMK AO2 SLP251 T10221106 400441028
Loading
Personal Weather Stations






























Interactive Weather Map New forecast layout! Learn more

10-Day Weather Forecast

Advertisements
Track Severe Weather on mobile